Terminal Aerodrome Forecast
Issued by NWS Portland, OR

Home | Current Version | Previous Version | Text Only | Print | Product List | Glossary On
Versions: 1 2 3 4 5 6 7 8 9 10 11 12 13 14 15 16 17 18 19 20 21 22 23 24 25 26 27 28 29 30 31
633
FTUS46 KPQR 141735
TAFTTD
TAF
KTTD 141735Z 1418/1518 21009KT P6SM -RA OVC015
     FM142300 22008KT P6SM -RA SCT015 OVC035
     FM151000 22005KT P6SM -RA BKN015 OVC035=

USA.gov is the U.S. government's official web portal to all federal, state and local government web resources and services.